Aérodrome :
LOGIN :

S'inscrire | Disclaimer

   EN    FR    IT 

 










Légende :    VFR   VFR Marginal   IFR   IFR Intensif   IFR Très Intensif
Visi : 
Plafond : 
>= 8 km
>= 3000ft
5 à 8 km
1000 à 3000 ft
1500m à 5 km
500 à 1000 ft
800 à 1500m
200 à 500 ft
< 800m
< 200 ft
Symboles :   Orages  Brouillard  Fortes neiges  Fortes précipitations  Vent > 20 kt
SIGMETs :   Divers  Orages  Givrage  Turbulence  Onde Orograph.  Cendres Volcan.







- Altitude de l'aérodrome : 1234 ft
- Code IATA : LUX


ELLX - Luxembourg Findel

DERNIER METAR :
  • 180250Z 29006KT 9999 FEW008 BKN010 M01/M02 Q1015 NOSIG

METARs EXPIRÉS :
  • 180220Z AUTO 27007KT 9999 // NCD M01/M02 Q1015 NOSIG
  • 180150Z AUTO 29007KT 9999 // ///////// M01/M02 Q1015 NOSIG
  • 180120Z AUTO 27009KT 9999 SCT010/// BKN012/// BKN015/// M01/M02 Q1015 NOSIG
  • 180050Z AUTO 29008KT 9999 BKN010/// BKN012/// M01/M02 Q1014 NOSIG
  • 180020Z AUTO 28007KT 240V310 9999 NCD M01/M02 Q1014 NOSIG
  • 172350Z 30009KT CAVOK M01/M02 Q1014 NOSIG

TAF TAF ELLX
Valide du 18 à 00h jusqu'au 19 à 06h UTC


172300Z 1800/1906 27008KT 9999 SCT015
TEMPO 1803/1807 6000 SCT003
BECMG 1810/1812 18006KT
BECMG 1816/1818 09006KT CAVOK
TEMPO 1903/1906 4000 BR NSC
ATIS : +352 4798 27300
Météo : +352 4798 27010 / 27050
Pas de NOTAMs connus pour ce terrain.



MET'MAP, la Météo Aéronautique d'un coup d'oeil ! - Copyright ORBIFLY Décembre 2007 - Disclaimer

ORBIFLY MET'MAP TEAM :

Programmation & Développement : Alexandra Zaïnal
Conception & Développement : Baudouin d'Aumeries
Co-Programmation & Développement : Marc-Olivier Méhu
Soutien technique & logistique : Manuel Goepfert

Contact : metmap@orbifly.com




SOURCES & CREDITS :

   NOAA